createdAt,value
2019-04-22T00:00:36.011Z,15.20
2019-04-22T00:03:05.199Z,15.38
2019-04-22T00:05:58.915Z,12.93
2019-04-22T00:08:30.961Z,13.65
2019-04-22T00:11:06.322Z,13.58
2019-04-22T00:13:39.769Z,13.83
2019-04-22T00:16:01.095Z,14.25
2019-04-22T00:18:54.946Z,14.18
2019-04-22T00:21:14.092Z,15.08
2019-04-22T00:23:39.535Z,13.48
2019-04-22T00:26:19.772Z,12.23
2019-04-22T00:28:53.268Z,14.20
2019-04-22T00:31:21.003Z,13.93
2019-04-22T00:33:53.324Z,12.95
2019-04-22T00:36:27.515Z,13.90
2019-04-22T00:38:59.013Z,13.93
2019-04-22T00:41:40.560Z,13.72
2019-04-22T00:44:02.612Z,14.55
2019-04-22T00:46:39.696Z,14.98
2019-04-22T00:49:52.996Z,14.60
2019-04-22T00:51:44.883Z,14.50
2019-04-22T00:54:05.758Z,14.38
2019-04-22T00:56:42.149Z,14.45
2019-04-22T00:59:14.401Z,13.60
2019-04-22T01:01:46.032Z,13.93
2019-04-22T01:04:20.431Z,14.43
2019-04-22T01:06:49.686Z,14.43
2019-04-22T01:09:25.145Z,14.65
2019-04-22T01:11:55.660Z,14.85
2019-04-22T01:14:29.776Z,14.93
2019-04-22T01:17:01.547Z,14.53
2019-04-22T01:19:29.654Z,15.13
2019-04-22T01:21:58.544Z,15.68
2019-04-22T01:24:32.603Z,13.58
2019-04-22T01:26:58.102Z,16.07
2019-04-22T01:29:27.936Z,14.83
2019-04-22T01:31:47.380Z,14.45
2019-04-22T01:34:33.548Z,14.93
2019-04-22T01:37:07.605Z,14.87
2019-04-22T01:39:43.570Z,14.00
2019-04-22T01:42:10.884Z,14.33
2019-04-22T01:44:45.570Z,14.78
2019-04-22T01:47:23.193Z,14.73
2019-04-22T01:49:49.539Z,15.10
2019-04-22T01:52:27.518Z,14.83
2019-04-22T01:54:58.547Z,13.70
2019-04-22T01:57:23.959Z,14.03
2019-04-22T01:59:47.419Z,13.95
2019-04-22T02:02:32.124Z,14.60
2019-04-22T02:04:59.849Z,14.03
2019-04-22T02:07:29.399Z,13.70
2019-04-22T02:10:08.707Z,14.40
2019-04-22T02:12:36.831Z,13.85
2019-04-22T02:15:09.200Z,13.98
2019-04-22T02:17:37.141Z,14.05
2019-04-22T02:20:13.657Z,14.93
2019-04-22T02:23:23.487Z,14.70
2019-04-22T02:25:32.617Z,14.73
2019-04-22T02:28:05.440Z,15.00
2019-04-22T02:30:49.915Z,14.10
2019-04-22T02:33:44.037Z,14.87
2019-04-22T02:35:59.930Z,15.43
2019-04-22T02:38:40.755Z,14.38
2019-04-22T02:41:13.217Z,15.80
2019-04-22T02:46:04.824Z,14.73
2019-04-22T02:48:39.955Z,15.83
2019-04-22T02:53:46.782Z,14.40
2019-04-22T03:01:05.309Z,14.83
2019-04-22T03:06:56.059Z,14.40
2019-04-22T03:12:02.743Z,14.30
2019-04-22T03:14:30.655Z,15.20
2019-04-22T03:17:01.174Z,15.07
2019-04-22T03:19:50.441Z,14.55
2019-04-22T03:22:03.431Z,13.75
2019-04-22T03:24:36.195Z,14.47
2019-04-22T03:30:26.488Z,14.85
2019-04-22T03:42:32.794Z,15.35
2019-04-22T03:45:10.684Z,14.68
2019-04-22T03:47:59.615Z,15.85
2019-04-22T03:55:09.223Z,16.27
2019-04-22T03:57:53.891Z,15.35
2019-04-22T04:00:17.432Z,16.17
2019-04-22T04:05:22.173Z,16.90
2019-04-22T04:07:55.474Z,15.07
2019-04-22T04:13:00.082Z,14.90
2019-04-22T04:15:23.715Z,15.13
2019-04-22T04:20:32.521Z,15.08
2019-04-22T04:23:04.905Z,16.47
2019-04-22T04:30:30.229Z,14.23
2019-04-22T04:35:47.906Z,14.37
2019-04-22T04:37:55.976Z,14.40
2019-04-22T04:48:13.687Z,14.17
2019-04-22T04:50:53.666Z,15.10
2019-04-22T04:58:27.378Z,13.83
2019-04-22T05:00:57.692Z,14.07
2019-04-22T05:03:21.335Z,14.90
2019-04-22T05:05:47.834Z,13.03
2019-04-22T05:08:33.102Z,14.37
2019-04-22T05:11:05.854Z,14.93
2019-04-22T05:13:25.755Z,14.13
2019-04-22T05:16:10.704Z,15.40
2019-04-22T05:18:29.646Z,14.27
2019-04-22T05:23:30.001Z,14.67
2019-04-22T05:26:02.581Z,13.73
2019-04-22T05:28:24.386Z,14.60
2019-04-22T05:31:06.142Z,14.70
2019-04-22T05:33:32.282Z,14.83
2019-04-22T05:36:01.541Z,13.30
2019-04-22T05:38:33.349Z,14.40
2019-04-22T05:41:02.761Z,14.30
2019-04-22T05:43:34.474Z,14.38
2019-04-22T05:46:05.759Z,14.53
2019-04-22T05:48:41.510Z,14.17
2019-04-22T05:51:14.630Z,14.50
2019-04-22T05:53:40.254Z,13.93
2019-04-22T05:56:27.815Z,13.17
2019-04-22T05:58:52.773Z,13.85
2019-04-22T06:01:43.217Z,13.47
2019-04-22T06:03:59.030Z,14.47
2019-04-22T06:06:35.579Z,15.67
2019-04-22T06:09:02.231Z,15.70
2019-04-22T06:13:56.051Z,15.10
2019-04-22T06:16:43.109Z,14.17
2019-04-22T06:19:12.587Z,14.90
2019-04-22T06:21:37.076Z,14.30
2019-04-22T06:26:53.854Z,14.77
2019-04-22T06:29:15.268Z,14.67
2019-04-22T06:32:06.930Z,12.80
2019-04-22T06:34:17.917Z,12.53
2019-04-22T06:36:51.194Z,12.40
2019-04-22T06:41:56.183Z,11.85
2019-04-22T06:44:26.627Z,11.83
2019-04-22T06:49:31.852Z,11.22
2019-04-22T06:52:05.623Z,10.13
2019-04-22T06:54:32.957Z,9.95
2019-04-22T06:59:36.595Z,10.03
2019-04-22T07:02:11.743Z,9.68
2019-04-22T07:04:33.864Z,9.00
2019-04-22T07:07:06.690Z,9.08
2019-04-22T07:09:42.711Z,8.65
2019-04-22T07:12:11.641Z,8.80
2019-04-22T07:14:43.217Z,8.70
2019-04-22T07:17:27.562Z,8.08
2019-04-22T07:19:42.254Z,8.00
2019-04-22T07:22:16.306Z,8.20
2019-04-22T07:29:55.882Z,7.05
2019-04-22T07:32:26.625Z,7.15
2019-04-22T07:34:52.773Z,6.92
2019-04-22T07:37:34.308Z,6.60
2019-04-22T07:39:50.190Z,6.42
2019-04-22T07:47:34.159Z,6.00
2019-04-22T07:50:08.418Z,5.58
2019-04-22T07:52:35.413Z,6.35
2019-04-22T07:55:07.345Z,5.37
2019-04-22T08:00:12.689Z,5.50
2019-04-22T08:02:44.381Z,5.28
2019-04-22T08:05:16.872Z,6.45
2019-04-22T08:07:45.428Z,5.20
2019-04-22T08:10:23.895Z,5.70
2019-04-22T08:12:51.942Z,5.40
2019-04-22T08:15:20.105Z,4.47
2019-04-22T08:20:26.890Z,4.62
2019-04-22T08:23:02.852Z,4.95
2019-04-22T08:25:24.938Z,4.80
2019-04-22T08:28:03.735Z,4.30
2019-04-22T08:33:13.874Z,3.47
2019-04-22T08:35:56.701Z,4.17
2019-04-22T08:38:12.012Z,4.35
2019-04-22T08:40:49.494Z,4.00
2019-04-22T08:43:22.165Z,4.65
2019-04-22T08:48:15.111Z,4.33
2019-04-22T08:50:53.209Z,3.58
2019-04-22T08:53:28.625Z,4.03
2019-04-22T08:55:57.391Z,3.83
2019-04-22T08:58:28.039Z,3.40
2019-04-22T09:03:30.507Z,3.95
2019-04-22T09:06:04.887Z,3.75
2019-04-22T09:08:38.622Z,3.05
2019-04-22T09:11:08.177Z,4.12
2019-04-22T09:13:35.522Z,3.25
2019-04-22T09:16:14.672Z,3.33
2019-04-22T09:18:42.801Z,3.87
2019-04-22T09:23:44.334Z,3.77
2019-04-22T09:26:19.874Z,3.30
2019-04-22T09:28:54.863Z,3.33
2019-04-22T09:31:29.199Z,3.70
2019-04-22T09:33:43.107Z,3.10
2019-04-22T09:36:22.384Z,3.30
2019-04-22T09:38:50.090Z,3.08
2019-04-22T09:41:27.124Z,3.75
2019-04-22T09:46:32.849Z,3.02
2019-04-22T09:48:59.020Z,3.98
2019-04-22T09:51:26.403Z,2.90
2019-04-22T09:54:12.458Z,3.20
2019-04-22T09:59:02.621Z,2.70
2019-04-22T10:01:38.885Z,3.90
2019-04-22T10:04:06.908Z,4.42
2019-04-22T10:06:36.716Z,4.10
2019-04-22T10:09:40.598Z,4.35
2019-04-22T10:11:58.724Z,4.40
2019-04-22T10:14:19.305Z,4.80
2019-04-22T10:16:49.377Z,5.50
2019-04-22T10:19:18.743Z,4.47
2019-04-22T10:24:24.497Z,4.50
2019-04-22T10:26:59.909Z,4.45
2019-04-22T10:29:39.085Z,4.10
2019-04-22T10:32:00.833Z,5.15
2019-04-22T10:34:16.879Z,5.60
2019-04-22T10:36:37.941Z,4.33
2019-04-22T10:39:12.684Z,5.28
2019-04-22T10:41:42.625Z,4.50
2019-04-22T10:44:13.055Z,4.40
2019-04-22T10:46:44.378Z,5.05
2019-04-22T10:49:16.113Z,4.30
2019-04-22T10:51:46.555Z,4.40
2019-04-22T10:54:16.106Z,3.85
2019-04-22T10:56:45.602Z,4.80
2019-04-22T10:59:16.442Z,4.60
2019-04-22T11:01:46.535Z,5.28
2019-04-22T11:04:17.352Z,4.40
2019-04-22T11:06:53.132Z,4.30
2019-04-22T11:09:20.632Z,4.25
2019-04-22T11:11:59.432Z,4.25
2019-04-22T11:14:23.142Z,4.83
2019-04-22T11:16:53.372Z,4.25
2019-04-22T11:19:23.538Z,4.50
2019-04-22T11:22:03.588Z,4.00
2019-04-22T11:24:26.641Z,4.75
2019-04-22T11:26:57.046Z,4.33
2019-04-22T11:29:27.876Z,4.47
2019-04-22T11:31:57.433Z,4.20
2019-04-22T11:34:31.011Z,4.42
2019-04-22T11:37:01.100Z,4.33
2019-04-22T11:39:34.173Z,4.22
2019-04-22T11:42:02.536Z,4.45
2019-04-22T11:47:17.159Z,4.67
2019-04-22T11:49:47.957Z,4.87
2019-04-22T11:52:20.417Z,4.12
2019-04-22T11:54:50.779Z,3.98
2019-04-22T11:57:21.159Z,3.65
2019-04-22T11:59:51.174Z,4.30
2019-04-22T12:02:25.248Z,4.53
2019-04-22T12:04:56.021Z,4.25
2019-04-22T12:07:26.718Z,4.67
2019-04-22T12:09:57.490Z,4.20
2019-04-22T12:12:27.825Z,4.45
2019-04-22T12:14:58.698Z,4.17
2019-04-22T12:17:29.840Z,4.33
2019-04-22T12:20:00.492Z,3.80
2019-04-22T12:22:33.818Z,4.05
2019-04-22T12:25:06.371Z,3.75
2019-04-22T12:27:41.206Z,3.85
2019-04-22T12:30:14.702Z,4.15
2019-04-22T12:32:45.568Z,4.05
2019-04-22T12:35:17.821Z,4.15
2019-04-22T12:37:53.351Z,3.62
2019-04-22T12:40:30.111Z,3.98
2019-04-22T12:42:51.340Z,3.75
2019-04-22T12:45:22.470Z,3.98
2019-04-22T12:47:52.003Z,3.83
2019-04-22T12:50:27.422Z,3.98
2019-04-22T12:52:57.703Z,3.65
2019-04-22T12:55:25.841Z,3.77
2019-04-22T12:57:58.633Z,4.22
2019-04-22T13:00:27.883Z,4.20
2019-04-22T13:02:58.820Z,3.75
2019-04-22T13:05:29.241Z,3.65
2019-04-22T13:08:00.109Z,4.05
2019-04-22T13:10:41.573Z,4.53
2019-04-22T13:13:01.084Z,4.17
2019-04-22T13:15:30.823Z,4.22
2019-04-22T13:18:10.674Z,3.80
2019-04-22T13:20:32.353Z,4.20
2019-04-22T13:23:02.191Z,4.10
2019-04-22T13:25:32.442Z,4.20
2019-04-22T13:28:04.895Z,3.70
2019-04-22T13:30:36.756Z,3.80
2019-04-22T13:33:07.070Z,4.12
2019-04-22T13:35:36.764Z,3.75
2019-04-22T13:38:09.155Z,3.72
2019-04-22T13:40:39.401Z,4.40
2019-04-22T13:43:11.103Z,4.17
2019-04-22T13:45:40.889Z,4.10
2019-04-22T13:48:29.121Z,3.80
2019-04-22T13:51:16.676Z,4.47
2019-04-22T13:56:16.912Z,3.70
2019-04-22T13:58:42.770Z,3.90
2019-04-22T14:01:00.617Z,3.85
2019-04-22T14:03:36.079Z,3.75
2019-04-22T14:06:08.869Z,4.08
2019-04-22T14:08:38.473Z,3.67
2019-04-22T14:11:20.688Z,4.58
2019-04-22T14:13:39.599Z,3.95
2019-04-22T14:16:11.002Z,4.12
2019-04-22T14:18:41.501Z,4.35
2019-04-22T14:21:12.531Z,5.35
2019-04-22T14:23:42.500Z,4.10
2019-04-22T14:26:13.335Z,3.80
2019-04-22T14:28:43.753Z,4.17
2019-04-22T14:31:14.626Z,3.60
2019-04-22T14:33:46.551Z,3.20
2019-04-22T14:36:15.391Z,3.60
2019-04-22T14:38:45.946Z,3.20
2019-04-22T14:41:32.728Z,3.35
2019-04-22T14:44:47.236Z,3.65
2019-04-22T14:46:53.632Z,3.67
2019-04-22T14:49:21.542Z,3.27
2019-04-22T14:51:48.897Z,3.50
2019-04-22T14:54:12.683Z,3.35
2019-04-22T14:56:24.353Z,3.40
2019-04-22T14:58:56.497Z,3.10
2019-04-22T15:01:26.745Z,3.30
2019-04-22T15:03:56.550Z,3.12
2019-04-22T15:06:28.375Z,3.02
2019-04-22T15:09:01.837Z,3.10
2019-04-22T15:11:45.929Z,3.60
2019-04-22T15:14:05.414Z,3.45
2019-04-22T15:16:38.145Z,3.35
2019-04-22T15:19:09.609Z,3.10
2019-04-22T15:21:40.861Z,3.25
2019-04-22T15:24:12.530Z,3.42
2019-04-22T15:26:46.479Z,3.30
2019-04-22T15:29:19.305Z,4.15
2019-04-22T15:31:51.471Z,3.22
2019-04-22T15:34:22.526Z,3.33
2019-04-22T15:36:53.781Z,3.90
2019-04-22T15:39:25.080Z,3.35
2019-04-22T15:42:00.464Z,3.33
2019-04-22T15:44:26.103Z,3.15
2019-04-22T15:46:55.588Z,3.15
2019-04-22T15:49:25.312Z,3.45
2019-04-22T15:51:57.571Z,3.60
2019-04-22T15:54:25.886Z,3.65
2019-04-22T15:56:56.801Z,3.50
2019-04-22T15:59:45.003Z,3.58
2019-04-22T16:02:00.726Z,3.62
2019-04-22T16:04:30.936Z,3.20
2019-04-22T16:07:03.169Z,3.05
2019-04-22T16:09:33.267Z,3.58
2019-04-22T16:12:15.200Z,2.90
2019-04-22T16:14:41.429Z,3.12
2019-04-22T16:17:06.371Z,3.02
2019-04-22T16:19:39.153Z,4.25
2019-04-22T16:22:15.184Z,3.02
2019-04-22T16:24:48.277Z,3.25
2019-04-22T16:27:24.665Z,3.17
2019-04-22T16:29:55.133Z,3.45
2019-04-22T16:32:25.557Z,3.35
2019-04-22T16:34:56.584Z,3.27
2019-04-22T16:37:26.455Z,2.95
2019-04-22T16:39:56.648Z,3.27
2019-04-22T16:42:35.937Z,3.10
2019-04-22T16:44:57.677Z,3.25
2019-04-22T16:47:27.920Z,3.20
2019-04-22T16:49:57.544Z,3.02
2019-04-22T16:52:28.081Z,3.20
2019-04-22T16:54:58.954Z,3.10
2019-04-22T16:57:29.978Z,3.77
2019-04-22T17:00:00.453Z,3.00
2019-04-22T17:02:37.836Z,2.87
2019-04-22T17:05:13.735Z,3.60
2019-04-22T17:07:44.397Z,3.50
2019-04-22T17:10:15.532Z,3.40
2019-04-22T17:12:53.918Z,3.37
2019-04-22T17:15:18.879Z,2.80
2019-04-22T17:17:51.603Z,2.80
2019-04-22T17:20:22.898Z,2.92
2019-04-22T17:22:53.499Z,3.00
2019-04-22T17:25:24.497Z,3.20
2019-04-22T17:27:55.226Z,3.30
2019-04-22T17:33:06.685Z,2.90
2019-04-22T17:35:36.135Z,3.72
2019-04-22T17:38:18.513Z,3.22
2019-04-22T17:40:51.043Z,2.98
2019-04-22T17:43:40.513Z,2.95
2019-04-22T17:46:00.102Z,3.15
2019-04-22T17:48:40.176Z,3.42
2019-04-22T17:51:25.414Z,3.30
2019-04-22T17:53:49.383Z,3.47
2019-04-22T17:56:21.567Z,3.15
2019-04-22T17:58:51.156Z,3.02
2019-04-22T18:01:28.172Z,2.92
2019-04-22T18:03:41.200Z,2.60
2019-04-22T18:06:11.035Z,3.00
2019-04-22T18:08:56.394Z,3.15
2019-04-22T18:11:33.564Z,2.85
2019-04-22T18:14:16.807Z,2.60
2019-04-22T18:16:30.525Z,2.92
2019-04-22T18:19:07.517Z,2.60
2019-04-22T18:21:31.926Z,3.37
2019-04-22T18:24:00.309Z,3.05
2019-04-22T18:26:35.957Z,2.60
2019-04-22T18:29:07.202Z,3.22
2019-04-22T18:31:32.922Z,3.08
2019-04-22T18:34:08.776Z,3.00
2019-04-22T18:36:40.370Z,3.12
2019-04-22T18:41:46.730Z,2.85
2019-04-22T18:44:16.861Z,3.12
2019-04-22T18:46:47.763Z,3.33
2019-04-22T18:49:16.601Z,3.40
2019-04-22T18:52:01.112Z,3.17
2019-04-22T18:54:31.108Z,3.05
2019-04-22T18:57:07.111Z,3.40
2019-04-22T18:59:22.749Z,3.50
2019-04-22T19:01:48.097Z,4.05
2019-04-22T19:04:27.028Z,3.42
2019-04-22T19:07:17.551Z,3.62
2019-04-22T19:09:48.349Z,3.55
2019-04-22T19:12:25.741Z,2.87
2019-04-22T19:14:49.997Z,3.25
2019-04-22T19:17:28.469Z,3.22
2019-04-22T19:19:54.357Z,3.58
2019-04-22T19:22:16.239Z,5.42
2019-04-22T19:24:47.951Z,4.90
2019-04-22T19:27:26.909Z,7.33
2019-04-22T19:29:59.843Z,7.42
2019-04-22T19:32:35.114Z,7.35
2019-04-22T19:35:01.763Z,6.67
2019-04-22T19:37:28.704Z,6.05
2019-04-22T19:40:10.421Z,5.05
2019-04-22T19:45:08.613Z,4.55
2019-04-22T19:47:58.535Z,4.50
2019-04-22T19:50:16.549Z,4.90
2019-04-22T19:52:43.379Z,5.62
2019-04-22T19:55:18.312Z,5.30
2019-04-22T19:57:44.919Z,6.20
2019-04-22T20:00:28.552Z,5.05
2019-04-22T20:03:20.652Z,4.35
2019-04-22T20:05:47.595Z,4.50
2019-04-22T20:08:14.281Z,4.60
2019-04-22T20:10:46.081Z,3.85
2019-04-22T20:13:24.234Z,3.75
2019-04-22T20:15:43.324Z,4.05
2019-04-22T20:21:00.975Z,4.03
2019-04-22T20:23:24.254Z,3.87
2019-04-22T20:25:51.003Z,3.92
2019-04-22T20:28:35.827Z,3.67
2019-04-22T20:31:03.266Z,4.08
2019-04-22T20:33:43.137Z,3.92
2019-04-22T20:36:17.512Z,4.12
2019-04-22T20:38:38.839Z,3.55
2019-04-22T20:41:05.674Z,3.77
2019-04-22T20:43:51.482Z,3.85
2019-04-22T20:46:19.497Z,4.47
2019-04-22T20:48:48.434Z,4.20
2019-04-22T20:51:17.239Z,4.20
2019-04-22T20:53:52.861Z,4.00
2019-04-22T20:56:21.604Z,4.33
2019-04-22T20:58:56.803Z,4.20
2019-04-22T21:01:23.993Z,4.05
2019-04-22T21:03:47.014Z,3.85
2019-04-22T21:11:57.329Z,3.90
2019-04-22T21:14:28.871Z,4.87
2019-04-22T21:17:06.908Z,4.72
2019-04-22T21:19:47.170Z,5.25
2019-04-22T21:22:18.194Z,3.70
2019-04-22T21:24:41.424Z,3.90
2019-04-22T21:27:26.790Z,3.55
2019-04-22T21:29:43.569Z,3.70
2019-04-22T21:32:21.709Z,3.50
2019-04-22T21:34:59.129Z,4.15
2019-04-22T21:37:26.841Z,4.33
2019-04-22T21:39:46.415Z,3.45
2019-04-22T21:42:28.324Z,3.67
2019-04-22T21:45:00.391Z,3.60
2019-04-22T21:47:34.917Z,4.15
2019-04-22T21:50:28.216Z,3.42
2019-04-22T21:52:45.955Z,3.52
2019-04-22T21:55:15.818Z,3.47
2019-04-22T21:57:57.255Z,3.67
2019-04-22T22:00:31.184Z,3.58
2019-04-22T22:03:03.699Z,3.50
2019-04-22T22:05:23.997Z,3.33
2019-04-22T22:07:51.087Z,3.55
2019-04-22T22:10:34.474Z,3.62
2019-04-22T22:13:08.571Z,3.83
2019-04-22T22:15:36.294Z,3.47
2019-04-22T22:18:02.137Z,3.22
2019-04-22T22:20:40.627Z,3.45
2019-04-22T22:23:15.078Z,3.25
2019-04-22T22:25:34.908Z,3.20
2019-04-22T22:28:21.936Z,2.98
2019-04-22T22:31:02.033Z,3.45
2019-04-22T22:33:10.979Z,2.95
2019-04-22T22:35:40.863Z,2.30
2019-04-22T22:38:18.772Z,2.75
2019-04-22T22:40:30.297Z,2.90
2019-04-22T22:42:59.382Z,2.87
2019-04-22T22:45:37.390Z,3.10
2019-04-22T22:48:30.186Z,2.92
2019-04-22T22:50:50.908Z,2.40
2019-04-22T22:53:37.160Z,3.17
2019-04-22T22:55:57.692Z,2.50
2019-04-22T22:58:34.053Z,3.10
2019-04-22T23:00:59.505Z,2.95
2019-04-22T23:03:46.031Z,2.83
2019-04-22T23:06:10.151Z,2.85
2019-04-22T23:08:49.496Z,3.20
2019-04-22T23:11:05.311Z,2.60
2019-04-22T23:13:43.094Z,3.40
2019-04-22T23:16:04.197Z,2.98
2019-04-22T23:18:23.611Z,2.67
2019-04-22T23:20:57.251Z,2.67
2019-04-22T23:23:45.344Z,2.83
2019-04-22T23:26:38.836Z,2.95
2019-04-22T23:29:12.063Z,3.12
2019-04-22T23:31:41.922Z,3.20
2019-04-22T23:34:19.838Z,3.02
2019-04-22T23:37:08.426Z,2.92
2019-04-22T23:39:48.395Z,3.02
2019-04-22T23:42:19.076Z,2.52
2019-04-22T23:44:52.935Z,2.60
2019-04-22T23:47:16.486Z,2.85
2019-04-22T23:49:53.462Z,3.30
2019-04-22T23:52:28.699Z,2.50
2019-04-22T23:55:09.884Z,2.83
2019-04-22T23:57:43.751Z,2.70
